sensor_id;sensor_type;location;lat;lon;timestamp;temperature;humidity
48579;DHT22;34357;51.948;6.132;2022-11-15T00:01:09;7.40;92.60
48579;DHT22;34357;51.948;6.132;2022-11-15T00:03:53;7.40;92.70
48579;DHT22;34357;51.948;6.132;2022-11-15T00:06:38;7.40;92.80
48579;DHT22;34357;51.948;6.132;2022-11-15T00:09:22;7.50;93.00
48579;DHT22;34357;51.948;6.132;2022-11-15T00:12:06;7.40;93.10
48579;DHT22;34357;51.948;6.132;2022-11-15T00:14:51;7.50;93.20
48579;DHT22;34357;51.948;6.132;2022-11-15T00:17:35;7.50;93.30
48579;DHT22;34357;51.948;6.132;2022-11-15T00:20:19;7.60;93.40
48579;DHT22;34357;51.948;6.132;2022-11-15T00:23:04;7.60;93.40
48579;DHT22;34357;51.948;6.132;2022-11-15T00:25:55;7.60;93.50
48579;DHT22;34357;51.948;6.132;2022-11-15T00:28:41;7.60;93.50
48579;DHT22;34357;51.948;6.132;2022-11-15T00:31:26;7.60;93.50
48579;DHT22;34357;51.948;6.132;2022-11-15T00:34:10;7.60;93.50
48579;DHT22;34357;51.948;6.132;2022-11-15T00:36:54;7.70;93.50
48579;DHT22;34357;51.948;6.132;2022-11-15T00:39:38;7.70;93.60
48579;DHT22;34357;51.948;6.132;2022-11-15T00:42:23;7.70;93.60
48579;DHT22;34357;51.948;6.132;2022-11-15T00:45:08;7.70;93.60
48579;DHT22;34357;51.948;6.132;2022-11-15T00:47:52;7.80;93.70
48579;DHT22;34357;51.948;6.132;2022-11-15T00:50:37;7.80;93.70
48579;DHT22;34357;51.948;6.132;2022-11-15T00:53:21;7.80;93.70
48579;DHT22;34357;51.948;6.132;2022-11-15T00:56:06;7.80;93.70
48579;DHT22;34357;51.948;6.132;2022-11-15T00:58:50;7.80;93.70
48579;DHT22;34357;51.948;6.132;2022-11-15T01:01:34;7.80;93.80
48579;DHT22;34357;51.948;6.132;2022-11-15T01:04:18;7.90;93.80
48579;DHT22;34357;51.948;6.132;2022-11-15T01:07:03;7.90;93.80
48579;DHT22;34357;51.948;6.132;2022-11-15T01:09:47;7.90;93.90
48579;DHT22;34357;51.948;6.132;2022-11-15T01:12:31;7.90;93.90
48579;DHT22;34357;51.948;6.132;2022-11-15T01:15:16;7.90;94.00
48579;DHT22;34357;51.948;6.132;2022-11-15T01:18:00;7.90;94.00
48579;DHT22;34357;51.948;6.132;2022-11-15T01:20:44;7.90;94.10
48579;DHT22;34357;51.948;6.132;2022-11-15T01:23:29;8.00;94.20
48579;DHT22;34357;51.948;6.132;2022-11-15T01:26:15;7.90;94.30
48579;DHT22;34357;51.948;6.132;2022-11-15T01:29:00;8.00;94.40
48579;DHT22;34357;51.948;6.132;2022-11-15T01:31:44;8.00;94.40
48579;DHT22;34357;51.948;6.132;2022-11-15T01:34:29;8.10;94.50
48579;DHT22;34357;51.948;6.132;2022-11-15T01:37:13;8.10;94.60
48579;DHT22;34357;51.948;6.132;2022-11-15T01:39:57;8.10;94.60
48579;DHT22;34357;51.948;6.132;2022-11-15T01:42:42;8.20;94.70
48579;DHT22;34357;51.948;6.132;2022-11-15T01:45:26;8.30;94.70
48579;DHT22;34357;51.948;6.132;2022-11-15T01:48:11;8.30;94.70
48579;DHT22;34357;51.948;6.132;2022-11-15T01:50:55;8.30;94.80
48579;DHT22;34357;51.948;6.132;2022-11-15T01:53:42;8.30;94.80
48579;DHT22;34357;51.948;6.132;2022-11-15T01:56:29;8.40;94.80
48579;DHT22;34357;51.948;6.132;2022-11-15T01:59:14;8.40;94.80
48579;DHT22;34357;51.948;6.132;2022-11-15T02:01:59;8.40;94.80
48579;DHT22;34357;51.948;6.132;2022-11-15T02:04:46;8.40;94.80
48579;DHT22;34357;51.948;6.132;2022-11-15T02:07:32;8.50;94.80
48579;DHT22;34357;51.948;6.132;2022-11-15T02:10:20;8.50;94.80
48579;DHT22;34357;51.948;6.132;2022-11-15T02:13:04;8.50;94.80
48579;DHT22;34357;51.948;6.132;2022-11-15T02:16:35;8.60;94.80
48579;DHT22;34357;51.948;6.132;2022-11-15T02:29:02;8.70;94.60
48579;DHT22;34357;51.948;6.132;2022-11-15T02:32:21;8.70;94.60
48579;DHT22;34357;51.948;6.132;2022-11-15T02:41:02;8.80;94.50
48579;DHT22;34357;51.948;6.132;2022-11-15T02:47:23;8.90;94.40
48579;DHT22;34357;51.948;6.132;2022-11-15T02:50:13;8.90;94.40
48579;DHT22;34357;51.948;6.132;2022-11-15T02:52:59;8.90;94.40
48579;DHT22;34357;51.948;6.132;2022-11-15T02:55:47;9.00;94.40
48579;DHT22;34357;51.948;6.132;2022-11-15T02:58:56;9.00;94.40
48579;DHT22;34357;51.948;6.132;2022-11-15T03:04:56;9.10;94.30
48579;DHT22;34357;51.948;6.132;2022-11-15T03:10:42;9.20;94.20
48579;DHT22;34357;51.948;6.132;2022-11-15T03:19:46;9.30;94.10
48579;DHT22;34357;51.948;6.132;2022-11-15T03:22:36;9.30;94.10
48579;DHT22;34357;51.948;6.132;2022-11-15T03:25:24;9.40;94.00
48579;DHT22;34357;51.948;6.132;2022-11-15T03:28:11;9.40;94.00
48579;DHT22;34357;51.948;6.132;2022-11-15T03:30:59;9.40;94.00
48579;DHT22;34357;51.948;6.132;2022-11-15T03:33:45;9.40;94.00
48579;DHT22;34357;51.948;6.132;2022-11-15T03:36:31;9.40;94.00
48579;DHT22;34357;51.948;6.132;2022-11-15T03:39:15;9.50;94.10
48579;DHT22;34357;51.948;6.132;2022-11-15T03:45:23;9.50;94.00
48579;DHT22;34357;51.948;6.132;2022-11-15T03:48:21;9.40;94.00
48579;DHT22;34357;51.948;6.132;2022-11-15T03:51:06;9.50;94.10
48579;DHT22;34357;51.948;6.132;2022-11-15T03:53:51;9.50;94.00
48579;DHT22;34357;51.948;6.132;2022-11-15T03:56:35;9.50;94.10
48579;DHT22;34357;51.948;6.132;2022-11-15T03:59:20;9.50;94.10
48579;DHT22;34357;51.948;6.132;2022-11-15T04:02:04;9.60;94.10
48579;DHT22;34357;51.948;6.132;2022-11-15T04:04:48;9.60;94.10
48579;DHT22;34357;51.948;6.132;2022-11-15T04:07:32;9.60;94.10
48579;DHT22;34357;51.948;6.132;2022-11-15T04:10:17;9.60;94.10
48579;DHT22;34357;51.948;6.132;2022-11-15T04:13:02;9.60;94.00
48579;DHT22;34357;51.948;6.132;2022-11-15T04:15:46;9.60;93.90
48579;DHT22;34357;51.948;6.132;2022-11-15T04:18:31;9.60;94.00
48579;DHT22;34357;51.948;6.132;2022-11-15T04:21:15;9.70;94.00
48579;DHT22;34357;51.948;6.132;2022-11-15T04:24:18;9.70;94.10
48579;DHT22;34357;51.948;6.132;2022-11-15T04:27:03;9.80;94.10
48579;DHT22;34357;51.948;6.132;2022-11-15T04:29:47;9.80;94.20
48579;DHT22;34357;51.948;6.132;2022-11-15T04:32:31;9.80;94.20
48579;DHT22;34357;51.948;6.132;2022-11-15T04:35:16;9.80;94.20
48579;DHT22;34357;51.948;6.132;2022-11-15T04:38:01;9.90;94.20
48579;DHT22;34357;51.948;6.132;2022-11-15T04:40:46;9.90;94.30
48579;DHT22;34357;51.948;6.132;2022-11-15T04:43:30;9.90;94.30
48579;DHT22;34357;51.948;6.132;2022-11-15T04:46:14;10.00;94.40
48579;DHT22;34357;51.948;6.132;2022-11-15T04:48:59;10.00;94.30
48579;DHT22;34357;51.948;6.132;2022-11-15T04:51:43;10.00;94.30
48579;DHT22;34357;51.948;6.132;2022-11-15T04:54:28;10.00;94.30
48579;DHT22;34357;51.948;6.132;2022-11-15T04:57:12;10.10;94.30
48579;DHT22;34357;51.948;6.132;2022-11-15T04:59:57;10.10;94.30
48579;DHT22;34357;51.948;6.132;2022-11-15T05:02:41;10.10;94.30
48579;DHT22;34357;51.948;6.132;2022-11-15T05:05:44;10.10;94.30
48579;DHT22;34357;51.948;6.132;2022-11-15T05:08:28;10.20;94.30
48579;DHT22;34357;51.948;6.132;2022-11-15T05:11:13;10.30;94.30
48579;DHT22;34357;51.948;6.132;2022-11-15T05:13:57;10.30;94.30
48579;DHT22;34357;51.948;6.132;2022-11-15T05:16:42;10.30;94.30
48579;DHT22;34357;51.948;6.132;2022-11-15T05:19:26;10.40;94.20
48579;DHT22;34357;51.948;6.132;2022-11-15T05:22:11;10.40;94.20
48579;DHT22;34357;51.948;6.132;2022-11-15T05:24:55;10.40;94.20
48579;DHT22;34357;51.948;6.132;2022-11-15T05:27:39;10.40;94.20
48579;DHT22;34357;51.948;6.132;2022-11-15T05:30:24;10.40;94.20
48579;DHT22;34357;51.948;6.132;2022-11-15T05:33:08;10.40;94.20
48579;DHT22;34357;51.948;6.132;2022-11-15T05:36:04;10.40;94.20
48579;DHT22;34357;51.948;6.132;2022-11-15T05:38:49;10.40;94.20
48579;DHT22;34357;51.948;6.132;2022-11-15T05:44:22;10.50;94.30
48579;DHT22;34357;51.948;6.132;2022-11-15T05:47:10;10.60;94.30
48579;DHT22;34357;51.948;6.132;2022-11-15T05:49:55;10.50;94.40
48579;DHT22;34357;51.948;6.132;2022-11-15T05:52:40;10.50;94.30
48579;DHT22;34357;51.948;6.132;2022-11-15T05:55:24;10.50;94.30
48579;DHT22;34357;51.948;6.132;2022-11-15T05:58:09;10.50;94.30
48579;DHT22;34357;51.948;6.132;2022-11-15T06:00:54;10.50;94.30
48579;DHT22;34357;51.948;6.132;2022-11-15T06:03:39;10.50;94.40
48579;DHT22;34357;51.948;6.132;2022-11-15T06:06:23;10.50;94.40
48579;DHT22;34357;51.948;6.132;2022-11-15T06:09:07;10.50;94.50
48579;DHT22;34357;51.948;6.132;2022-11-15T06:11:52;10.50;94.50
48579;DHT22;34357;51.948;6.132;2022-11-15T06:14:36;10.50;94.50
48579;DHT22;34357;51.948;6.132;2022-11-15T06:17:20;10.60;94.50
48579;DHT22;34357;51.948;6.132;2022-11-15T06:20:05;10.60;94.60
48579;DHT22;34357;51.948;6.132;2022-11-15T06:22:49;10.60;94.60
48579;DHT22;34357;51.948;6.132;2022-11-15T06:25:33;10.50;94.60
48579;DHT22;34357;51.948;6.132;2022-11-15T06:28:18;10.60;94.70
48579;DHT22;34357;51.948;6.132;2022-11-15T06:31:04;10.50;94.80
48579;DHT22;34357;51.948;6.132;2022-11-15T06:33:48;10.60;94.80
48579;DHT22;34357;51.948;6.132;2022-11-15T06:36:36;10.60;94.90
48579;DHT22;34357;51.948;6.132;2022-11-15T06:39:21;10.60;94.90
48579;DHT22;34357;51.948;6.132;2022-11-15T06:42:05;10.50;94.90
48579;DHT22;34357;51.948;6.132;2022-11-15T06:44:49;10.60;95.00
48579;DHT22;34357;51.948;6.132;2022-11-15T06:47:33;10.50;95.00
48579;DHT22;34357;51.948;6.132;2022-11-15T06:50:17;10.60;95.10
48579;DHT22;34357;51.948;6.132;2022-11-15T06:53:03;10.60;95.10
48579;DHT22;34357;51.948;6.132;2022-11-15T06:55:47;10.60;95.10
48579;DHT22;34357;51.948;6.132;2022-11-15T06:58:32;10.60;95.20
48579;DHT22;34357;51.948;6.132;2022-11-15T07:01:16;10.60;95.20
48579;DHT22;34357;51.948;6.132;2022-11-15T07:04:00;10.60;95.30
48579;DHT22;34357;51.948;6.132;2022-11-15T07:06:46;10.60;95.20
48579;DHT22;34357;51.948;6.132;2022-11-15T07:09:32;10.70;95.30
48579;DHT22;34357;51.948;6.132;2022-11-15T07:12:16;10.60;95.20
48579;DHT22;34357;51.948;6.132;2022-11-15T07:15:00;10.50;95.20
48579;DHT22;34357;51.948;6.132;2022-11-15T07:17:45;10.60;95.30
48579;DHT22;34357;51.948;6.132;2022-11-15T07:20:29;10.50;95.30
48579;DHT22;34357;51.948;6.132;2022-11-15T07:23:13;10.60;95.30
48579;DHT22;34357;51.948;6.132;2022-11-15T07:25:58;10.50;95.30
48579;DHT22;34357;51.948;6.132;2022-11-15T07:28:43;10.60;95.40
48579;DHT22;34357;51.948;6.132;2022-11-15T07:31:28;10.60;95.40
48579;DHT22;34357;51.948;6.132;2022-11-15T07:34:12;10.60;95.40
48579;DHT22;34357;51.948;6.132;2022-11-15T07:36:56;10.60;95.40
48579;DHT22;34357;51.948;6.132;2022-11-15T07:39:40;10.70;95.40
48579;DHT22;34357;51.948;6.132;2022-11-15T07:42:25;10.60;95.40
48579;DHT22;34357;51.948;6.132;2022-11-15T07:45:28;10.70;95.40
48579;DHT22;34357;51.948;6.132;2022-11-15T07:48:13;10.60;95.40
48579;DHT22;34357;51.948;6.132;2022-11-15T07:50:57;10.70;95.40
48579;DHT22;34357;51.948;6.132;2022-11-15T07:53:44;10.60;95.30
48579;DHT22;34357;51.948;6.132;2022-11-15T07:56:28;10.60;95.40
48579;DHT22;34357;51.948;6.132;2022-11-15T07:59:13;10.70;95.40
48579;DHT22;34357;51.948;6.132;2022-11-15T08:01:57;10.70;95.50
48579;DHT22;34357;51.948;6.132;2022-11-15T08:04:41;10.70;95.40
48579;DHT22;34357;51.948;6.132;2022-11-15T08:07:29;10.70;95.50
48579;DHT22;34357;51.948;6.132;2022-11-15T08:10:14;10.70;95.50
48579;DHT22;34357;51.948;6.132;2022-11-15T08:13:09;10.70;95.50
48579;DHT22;34357;51.948;6.132;2022-11-15T08:16:01;10.60;95.50
48579;DHT22;34357;51.948;6.132;2022-11-15T08:18:46;10.70;95.50
48579;DHT22;34357;51.948;6.132;2022-11-15T08:21:30;10.70;95.50
48579;DHT22;34357;51.948;6.132;2022-11-15T08:24:15;10.60;95.50
48579;DHT22;34357;51.948;6.132;2022-11-15T08:26:59;10.60;95.50
48579;DHT22;34357;51.948;6.132;2022-11-15T08:29:44;10.70;95.50
48579;DHT22;34357;51.948;6.132;2022-11-15T08:32:30;10.70;95.50
48579;DHT22;34357;51.948;6.132;2022-11-15T08:35:15;10.70;95.50
48579;DHT22;34357;51.948;6.132;2022-11-15T08:37:59;10.70;95.60
48579;DHT22;34357;51.948;6.132;2022-11-15T08:40:43;10.70;95.50
48579;DHT22;34357;51.948;6.132;2022-11-15T08:43:28;10.70;95.60
48579;DHT22;34357;51.948;6.132;2022-11-15T08:46:13;10.70;95.50
48579;DHT22;34357;51.948;6.132;2022-11-15T08:48:57;10.70;95.60
48579;DHT22;34357;51.948;6.132;2022-11-15T08:51:42;10.80;95.60
48579;DHT22;34357;51.948;6.132;2022-11-15T08:54:26;10.80;95.60
48579;DHT22;34357;51.948;6.132;2022-11-15T08:57:10;10.80;95.60
48579;DHT22;34357;51.948;6.132;2022-11-15T08:59:55;11.00;95.50
48579;DHT22;34357;51.948;6.132;2022-11-15T09:02:40;11.00;95.50
48579;DHT22;34357;51.948;6.132;2022-11-15T09:05:25;11.00;95.40
48579;DHT22;34357;51.948;6.132;2022-11-15T09:08:10;11.10;95.40
48579;DHT22;34357;51.948;6.132;2022-11-15T09:10:55;11.10;95.20
48579;DHT22;34357;51.948;6.132;2022-11-15T09:13:39;11.10;95.00
48579;DHT22;34357;51.948;6.132;2022-11-15T09:16:24;11.10;94.70
48579;DHT22;34357;51.948;6.132;2022-11-15T09:19:08;11.10;94.40
48579;DHT22;34357;51.948;6.132;2022-11-15T09:21:53;11.00;94.10
48579;DHT22;34357;51.948;6.132;2022-11-15T09:24:37;11.00;93.80
48579;DHT22;34357;51.948;6.132;2022-11-15T09:27:21;11.00;93.70
48579;DHT22;34357;51.948;6.132;2022-11-15T09:30:05;11.00;93.50
48579;DHT22;34357;51.948;6.132;2022-11-15T09:32:50;11.10;93.20
48579;DHT22;34357;51.948;6.132;2022-11-15T09:35:35;11.10;93.20
48579;DHT22;34357;51.948;6.132;2022-11-15T09:38:20;11.10;93.20
48579;DHT22;34357;51.948;6.132;2022-11-15T09:50:45;11.10;92.90
48579;DHT22;34357;51.948;6.132;2022-11-15T09:53:22;11.10;92.90
48579;DHT22;34357;51.948;6.132;2022-11-15T09:55:59;11.20;92.80
48579;DHT22;34357;51.948;6.132;2022-11-15T10:04:02;11.20;92.50
48579;DHT22;34357;51.948;6.132;2022-11-15T10:06:28;11.30;92.60
48579;DHT22;34357;51.948;6.132;2022-11-15T10:09:19;11.30;92.40
48579;DHT22;34357;51.948;6.132;2022-11-15T10:11:47;11.40;92.40
48579;DHT22;34357;51.948;6.132;2022-11-15T10:14:20;11.50;92.40
48579;DHT22;34357;51.948;6.132;2022-11-15T10:19:28;11.60;92.10
48579;DHT22;34357;51.948;6.132;2022-11-15T10:22:16;11.70;92.00
48579;DHT22;34357;51.948;6.132;2022-11-15T10:24:44;11.70;91.40
48579;DHT22;34357;51.948;6.132;2022-11-15T10:27:18;11.60;90.60
48579;DHT22;34357;51.948;6.132;2022-11-15T10:29:46;11.70;90.20
48579;DHT22;34357;51.948;6.132;2022-11-15T10:32:14;11.80;90.30
48579;DHT22;34357;51.948;6.132;2022-11-15T10:34:41;11.80;90.20
48579;DHT22;34357;51.948;6.132;2022-11-15T10:37:06;11.80;90.40
48579;DHT22;34357;51.948;6.132;2022-11-15T10:39:33;11.80;89.50
48579;DHT22;34357;51.948;6.132;2022-11-15T10:42:25;11.90;89.10
48579;DHT22;34357;51.948;6.132;2022-11-15T10:44:50;11.90;88.80
48579;DHT22;34357;51.948;6.132;2022-11-15T10:47:26;11.90;88.20
48579;DHT22;34357;51.948;6.132;2022-11-15T10:50:30;11.90;88.20
48579;DHT22;34357;51.948;6.132;2022-11-15T10:52:57;11.90;87.30
48579;DHT22;34357;51.948;6.132;2022-11-15T10:55:31;11.90;86.60
48579;DHT22;34357;51.948;6.132;2022-11-15T10:58:05;11.90;86.40
48579;DHT22;34357;51.948;6.132;2022-11-15T11:00:40;11.90;86.30
48579;DHT22;34357;51.948;6.132;2022-11-15T11:03:31;11.90;86.10
48579;DHT22;34357;51.948;6.132;2022-11-15T11:06:05;11.90;84.90
48579;DHT22;34357;51.948;6.132;2022-11-15T11:08:31;12.00;84.80
48579;DHT22;34357;51.948;6.132;2022-11-15T11:11:02;12.00;84.60
48579;DHT22;34357;51.948;6.132;2022-11-15T11:16:07;12.10;84.60
48579;DHT22;34357;51.948;6.132;2022-11-15T11:21:14;12.10;83.70
48579;DHT22;34357;51.948;6.132;2022-11-15T11:26:35;12.10;81.60
48579;DHT22;34357;51.948;6.132;2022-11-15T11:29:34;11.90;80.70
48579;DHT22;34357;51.948;6.132;2022-11-15T11:40:20;12.10;79.10
48579;DHT22;34357;51.948;6.132;2022-11-15T11:51:24;12.30;76.80
48579;DHT22;34357;51.948;6.132;2022-11-15T11:54:03;12.20;74.40
48579;DHT22;34357;51.948;6.132;2022-11-15T11:56:36;12.20;75.20
48579;DHT22;34357;51.948;6.132;2022-11-15T11:59:27;12.20;74.90
48579;DHT22;34357;51.948;6.132;2022-11-15T12:01:55;12.20;75.30
48579;DHT22;34357;51.948;6.132;2022-11-15T12:04:30;12.20;75.00
48579;DHT22;34357;51.948;6.132;2022-11-15T12:07:42;12.20;74.60
48579;DHT22;34357;51.948;6.132;2022-11-15T12:12:41;12.30;74.60
48579;DHT22;34357;51.948;6.132;2022-11-15T12:17:37;12.20;74.60
48579;DHT22;34357;51.948;6.132;2022-11-15T12:20:24;12.20;76.00
48579;DHT22;34357;51.948;6.132;2022-11-15T12:22:55;12.30;74.80
48579;DHT22;34357;51.948;6.132;2022-11-15T12:25:25;12.30;73.60
48579;DHT22;34357;51.948;6.132;2022-11-15T12:30:51;12.30;73.30
48579;DHT22;34357;51.948;6.132;2022-11-15T12:33:39;12.30;73.00
48579;DHT22;34357;51.948;6.132;2022-11-15T12:36:33;12.30;72.50
48579;DHT22;34357;51.948;6.132;2022-11-15T12:41:35;12.40;73.00
48579;DHT22;34357;51.948;6.132;2022-11-15T12:44:02;12.40;71.60
48579;DHT22;34357;51.948;6.132;2022-11-15T12:48:59;12.40;70.70
48579;DHT22;34357;51.948;6.132;2022-11-15T13:02:45;12.40;71.40
48579;DHT22;34357;51.948;6.132;2022-11-15T13:17:53;12.50;72.10
48579;DHT22;34357;51.948;6.132;2022-11-15T13:20:26;12.50;72.30
48579;DHT22;34357;51.948;6.132;2022-11-15T13:26:14;12.60;72.30
48579;DHT22;34357;51.948;6.132;2022-11-15T13:28:48;12.60;72.30
48579;DHT22;34357;51.948;6.132;2022-11-15T13:31:34;12.60;72.40
48579;DHT22;34357;51.948;6.132;2022-11-15T13:34:14;12.50;72.90
48579;DHT22;34357;51.948;6.132;2022-11-15T13:36:41;12.50;72.90
48579;DHT22;34357;51.948;6.132;2022-11-15T13:39:26;12.50;72.90
48579;DHT22;34357;51.948;6.132;2022-11-15T13:41:52;12.50;73.00
48579;DHT22;34357;51.948;6.132;2022-11-15T13:47:20;12.40;74.40
48579;DHT22;34357;51.948;6.132;2022-11-15T13:49:45;12.40;73.80
48579;DHT22;34357;51.948;6.132;2022-11-15T13:52:13;12.40;73.40
48579;DHT22;34357;51.948;6.132;2022-11-15T14:00:06;12.40;73.80
48579;DHT22;34357;51.948;6.132;2022-11-15T14:02:38;12.40;73.60
48579;DHT22;34357;51.948;6.132;2022-11-15T14:05:17;12.40;74.80
48579;DHT22;34357;51.948;6.132;2022-11-15T14:08:11;12.40;74.60
48579;DHT22;34357;51.948;6.132;2022-11-15T14:10:39;12.30;74.50
48579;DHT22;34357;51.948;6.132;2022-11-15T14:13:25;12.30;73.80
48579;DHT22;34357;51.948;6.132;2022-11-15T14:15:51;12.30;75.00
48579;DHT22;34357;51.948;6.132;2022-11-15T14:19:10;12.20;73.50
48579;DHT22;34357;51.948;6.132;2022-11-15T14:21:28;12.20;74.00
48579;DHT22;34357;51.948;6.132;2022-11-15T14:24:17;12.20;74.50
48579;DHT22;34357;51.948;6.132;2022-11-15T14:26:44;12.10;73.50
48579;DHT22;34357;51.948;6.132;2022-11-15T14:29:26;12.10;74.20
48579;DHT22;34357;51.948;6.132;2022-11-15T14:32:17;12.10;74.20
48579;DHT22;34357;51.948;6.132;2022-11-15T14:34:44;12.00;74.60
48579;DHT22;34357;51.948;6.132;2022-11-15T14:37:25;12.00;74.20
48579;DHT22;34357;51.948;6.132;2022-11-15T14:39:52;12.00;73.80
48579;DHT22;34357;51.948;6.132;2022-11-15T14:42:19;12.00;74.40
48579;DHT22;34357;51.948;6.132;2022-11-15T14:44:45;11.90;75.70
48579;DHT22;34357;51.948;6.132;2022-11-15T14:47:11;11.90;75.00
48579;DHT22;34357;51.948;6.132;2022-11-15T14:49:37;11.90;75.40
48579;DHT22;34357;51.948;6.132;2022-11-15T14:52:12;11.90;74.90
48579;DHT22;34357;51.948;6.132;2022-11-15T14:54:41;12.00;73.90
48579;DHT22;34357;51.948;6.132;2022-11-15T14:57:07;12.00;73.90
48579;DHT22;34357;51.948;6.132;2022-11-15T14:59:33;12.00;74.50
48579;DHT22;34357;51.948;6.132;2022-11-15T15:01:58;12.00;74.20
48579;DHT22;34357;51.948;6.132;2022-11-15T15:04:24;11.90;74.80
48579;DHT22;34357;51.948;6.132;2022-11-15T15:06:50;11.90;74.30
48579;DHT22;34357;51.948;6.132;2022-11-15T15:09:16;11.90;73.90
48579;DHT22;34357;51.948;6.132;2022-11-15T15:11:41;12.00;73.10
48579;DHT22;34357;51.948;6.132;2022-11-15T15:14:08;12.00;73.60
48579;DHT22;34357;51.948;6.132;2022-11-15T15:16:33;12.00;73.70
48579;DHT22;34357;51.948;6.132;2022-11-15T15:18:59;12.00;73.60
48579;DHT22;34357;51.948;6.132;2022-11-15T15:21:26;11.90;73.90
48579;DHT22;34357;51.948;6.132;2022-11-15T15:23:53;12.00;73.00
48579;DHT22;34357;51.948;6.132;2022-11-15T15:26:20;12.00;72.50
48579;DHT22;34357;51.948;6.132;2022-11-15T15:28:46;12.00;73.20
48579;DHT22;34357;51.948;6.132;2022-11-15T15:31:14;12.00;73.40
48579;DHT22;34357;51.948;6.132;2022-11-15T15:33:40;12.10;73.20
48579;DHT22;34357;51.948;6.132;2022-11-15T15:36:13;12.10;73.10
48579;DHT22;34357;51.948;6.132;2022-11-15T15:38:39;12.10;73.70
48579;DHT22;34357;51.948;6.132;2022-11-15T15:41:16;12.00;73.50
48579;DHT22;34357;51.948;6.132;2022-11-15T15:43:42;12.00;74.40
48579;DHT22;34357;51.948;6.132;2022-11-15T15:46:15;12.00;74.10
48579;DHT22;34357;51.948;6.132;2022-11-15T15:48:41;12.00;74.40
48579;DHT22;34357;51.948;6.132;2022-11-15T15:51:07;12.10;74.50
48579;DHT22;34357;51.948;6.132;2022-11-15T15:53:33;12.10;74.40
48579;DHT22;34357;51.948;6.132;2022-11-15T15:55:59;12.10;74.20
48579;DHT22;34357;51.948;6.132;2022-11-15T15:58:25;12.10;74.70
48579;DHT22;34357;51.948;6.132;2022-11-15T16:00:51;12.20;74.20
48579;DHT22;34357;51.948;6.132;2022-11-15T16:03:17;12.20;74.50
48579;DHT22;34357;51.948;6.132;2022-11-15T16:05:43;12.20;75.10
48579;DHT22;34357;51.948;6.132;2022-11-15T16:08:23;12.10;75.60
48579;DHT22;34357;51.948;6.132;2022-11-15T16:10:49;12.20;74.90
48579;DHT22;34357;51.948;6.132;2022-11-15T16:13:15;12.10;75.30
48579;DHT22;34357;51.948;6.132;2022-11-15T16:15:42;12.10;75.40
48579;DHT22;34357;51.948;6.132;2022-11-15T16:18:17;12.20;75.10
48579;DHT22;34357;51.948;6.132;2022-11-15T16:20:48;12.20;75.10
48579;DHT22;34357;51.948;6.132;2022-11-15T16:23:18;12.20;75.00
48579;DHT22;34357;51.948;6.132;2022-11-15T16:25:55;12.10;75.70
48579;DHT22;34357;51.948;6.132;2022-11-15T16:28:28;12.10;75.50
48579;DHT22;34357;51.948;6.132;2022-11-15T16:31:04;12.10;75.70
48579;DHT22;34357;51.948;6.132;2022-11-15T16:33:30;12.20;75.10
48579;DHT22;34357;51.948;6.132;2022-11-15T16:35:56;12.10;75.10
48579;DHT22;34357;51.948;6.132;2022-11-15T16:38:22;12.10;75.30
48579;DHT22;34357;51.948;6.132;2022-11-15T16:40:48;12.10;75.80
48579;DHT22;34357;51.948;6.132;2022-11-15T16:43:14;12.20;75.20
48579;DHT22;34357;51.948;6.132;2022-11-15T16:45:39;12.20;75.30
48579;DHT22;34357;51.948;6.132;2022-11-15T16:48:23;12.10;75.80
48579;DHT22;34357;51.948;6.132;2022-11-15T16:50:50;12.10;76.00
48579;DHT22;34357;51.948;6.132;2022-11-15T16:53:16;12.20;75.80
48579;DHT22;34357;51.948;6.132;2022-11-15T16:55:41;12.30;75.60
48579;DHT22;34357;51.948;6.132;2022-11-15T16:58:08;12.20;76.10
48579;DHT22;34357;51.948;6.132;2022-11-15T17:00:34;12.20;76.20
48579;DHT22;34357;51.948;6.132;2022-11-15T17:02:59;12.20;76.30
48579;DHT22;34357;51.948;6.132;2022-11-15T17:05:25;12.30;76.30
48579;DHT22;34357;51.948;6.132;2022-11-15T17:07:54;12.30;76.40
48579;DHT22;34357;51.948;6.132;2022-11-15T17:10:21;12.30;76.50
48579;DHT22;34357;51.948;6.132;2022-11-15T17:12:48;12.20;76.90
48579;DHT22;34357;51.948;6.132;2022-11-15T17:15:14;12.30;76.80
48579;DHT22;34357;51.948;6.132;2022-11-15T17:17:41;12.40;76.90
48579;DHT22;34357;51.948;6.132;2022-11-15T17:20:14;12.40;77.00
48579;DHT22;34357;51.948;6.132;2022-11-15T17:22:40;12.40;76.60
48579;DHT22;34357;51.948;6.132;2022-11-15T17:25:07;12.40;77.10
48579;DHT22;34357;51.948;6.132;2022-11-15T17:27:32;12.50;76.80
48579;DHT22;34357;51.948;6.132;2022-11-15T17:29:58;12.40;76.90
48579;DHT22;34357;51.948;6.132;2022-11-15T17:32:24;12.50;76.90
48579;DHT22;34357;51.948;6.132;2022-11-15T17:34:49;12.50;76.80
48579;DHT22;34357;51.948;6.132;2022-11-15T17:37:15;12.50;76.80
48579;DHT22;34357;51.948;6.132;2022-11-15T17:39:41;12.60;76.60
48579;DHT22;34357;51.948;6.132;2022-11-15T17:42:07;12.60;76.60
48579;DHT22;34357;51.948;6.132;2022-11-15T17:44:32;12.60;76.60
48579;DHT22;34357;51.948;6.132;2022-11-15T17:46:58;12.60;76.70
48579;DHT22;34357;51.948;6.132;2022-11-15T17:49:24;12.60;77.40
48579;DHT22;34357;51.948;6.132;2022-11-15T17:51:50;12.60;76.90
48579;DHT22;34357;51.948;6.132;2022-11-15T17:54:15;12.60;77.00
48579;DHT22;34357;51.948;6.132;2022-11-15T17:56:41;12.70;77.30
48579;DHT22;34357;51.948;6.132;2022-11-15T17:59:07;12.60;77.60
48579;DHT22;34357;51.948;6.132;2022-11-15T18:01:35;12.60;78.10
48579;DHT22;34357;51.948;6.132;2022-11-15T18:04:02;12.50;78.20
48579;DHT22;34357;51.948;6.132;2022-11-15T18:06:30;12.50;78.60
48579;DHT22;34357;51.948;6.132;2022-11-15T18:08:57;12.50;78.90
48579;DHT22;34357;51.948;6.132;2022-11-15T18:11:30;12.50;79.00
48579;DHT22;34357;51.948;6.132;2022-11-15T18:13:59;12.50;79.20
48579;DHT22;34357;51.948;6.132;2022-11-15T18:16:28;12.50;79.40
48579;DHT22;34357;51.948;6.132;2022-11-15T18:18:55;12.40;80.00
48579;DHT22;34357;51.948;6.132;2022-11-15T18:21:24;12.40;80.40
48579;DHT22;34357;51.948;6.132;2022-11-15T18:23:53;12.40;80.10
48579;DHT22;34357;51.948;6.132;2022-11-15T18:26:20;12.40;80.70
48579;DHT22;34357;51.948;6.132;2022-11-15T18:28:48;12.30;81.50
48579;DHT22;34357;51.948;6.132;2022-11-15T18:31:19;12.20;82.60
48579;DHT22;34357;51.948;6.132;2022-11-15T18:33:46;12.20;82.50
48579;DHT22;34357;51.948;6.132;2022-11-15T18:36:14;12.10;83.30
48579;DHT22;34357;51.948;6.132;2022-11-15T18:38:40;12.00;83.70
48579;DHT22;34357;51.948;6.132;2022-11-15T18:41:13;11.90;84.30
48579;DHT22;34357;51.948;6.132;2022-11-15T18:43:42;11.90;84.50
48579;DHT22;34357;51.948;6.132;2022-11-15T18:46:13;11.90;84.60
48579;DHT22;34357;51.948;6.132;2022-11-15T18:48:40;11.90;85.00
48579;DHT22;34357;51.948;6.132;2022-11-15T18:51:11;11.90;84.70
48579;DHT22;34357;51.948;6.132;2022-11-15T18:53:38;11.90;84.80
48579;DHT22;34357;51.948;6.132;2022-11-15T18:58:37;11.90;84.80